createdAt,value
2023-05-01T00:02:39.334Z,75.72
2023-05-01T00:05:41.963Z,70.54
2023-05-01T00:08:44.217Z,70.76
2023-05-01T00:11:46.871Z,67.55
2023-05-01T00:14:49.151Z,67.63
2023-05-01T00:17:53.937Z,68.20
2023-05-01T00:20:56.180Z,66.97
2023-05-01T00:23:58.904Z,68.61
2023-05-01T00:27:01.047Z,69.87
2023-05-01T00:30:04.173Z,70.73
2023-05-01T00:33:06.415Z,71.61
2023-05-01T00:36:10.006Z,72.98
2023-05-01T00:39:12.586Z,73.55
2023-05-01T00:42:15.539Z,73.80
2023-05-01T00:45:18.175Z,75.34
2023-05-01T00:48:20.697Z,76.58
2023-05-01T00:51:23.250Z,76.57
2023-05-01T00:54:28.144Z,76.54
2023-05-01T00:57:30.460Z,78.08
2023-05-01T01:00:33.017Z,77.78
2023-05-01T01:03:35.702Z,78.35
2023-05-01T01:07:05.700Z,79.01
2023-05-01T01:10:33.064Z,80.47
2023-05-01T01:14:09.651Z,80.34
2023-05-01T01:17:15.173Z,81.56
2023-05-01T01:20:30.303Z,81.57
2023-05-01T01:23:55.540Z,82.99
2023-05-01T01:26:58.773Z,81.63
2023-05-01T01:30:12.121Z,81.62
2023-05-01T01:33:25.206Z,82.24
2023-05-01T01:36:53.129Z,83.05
2023-05-01T01:40:10.003Z,82.35
2023-05-01T01:43:15.876Z,83.10
2023-05-01T01:46:20.559Z,82.91
2023-05-01T01:49:26.460Z,78.87
2023-05-01T01:52:30.492Z,79.87
2023-05-01T01:55:35.116Z,80.19
2023-05-01T01:58:40.576Z,81.69
2023-05-01T02:01:44.754Z,80.72
2023-05-01T02:04:52.106Z,80.84
2023-05-01T02:07:56.454Z,78.92
2023-05-01T02:11:02.067Z,79.15
2023-05-01T02:14:07.004Z,78.28
2023-05-01T02:17:10.486Z,79.78
2023-05-01T02:20:13.782Z,80.25
2023-05-01T02:23:17.344Z,79.06
2023-05-01T02:26:25.224Z,77.93
2023-05-01T02:29:28.122Z,77.96
2023-05-01T02:32:31.904Z,79.22
2023-05-01T02:35:43.931Z,79.87
2023-05-01T02:38:50.977Z,79.60
2023-05-01T02:41:55.953Z,79.77
2023-05-01T02:45:02.966Z,79.51
2023-05-01T02:48:08.110Z,79.34
2023-05-01T02:51:11.844Z,79.01
2023-05-01T02:54:14.333Z,78.84
2023-05-01T02:57:20.369Z,79.88
2023-05-01T03:00:23.364Z,80.32
2023-05-01T03:03:27.771Z,80.26
2023-05-01T03:06:31.159Z,80.23
2023-05-01T03:09:33.777Z,78.27
2023-05-01T03:12:35.976Z,78.16
2023-05-01T03:15:39.044Z,78.26
2023-05-01T03:18:41.339Z,78.59
2023-05-01T03:21:43.780Z,78.58
2023-05-01T03:24:47.455Z,76.71
2023-05-01T03:27:50.037Z,75.45
2023-05-01T03:30:52.787Z,75.09
2023-05-01T03:33:55.904Z,74.95
2023-05-01T03:36:58.182Z,75.40
2023-05-01T03:40:01.940Z,75.28
2023-05-01T03:43:06.566Z,74.21
2023-05-01T03:46:09.260Z,75.67
2023-05-01T03:49:11.470Z,77.04
2023-05-01T03:52:14.842Z,76.23
2023-05-01T03:55:17.653Z,75.55
2023-05-01T03:58:22.285Z,75.38
2023-05-01T04:01:25.066Z,74.58
2023-05-01T04:04:29.693Z,77.21
2023-05-01T04:07:32.338Z,77.69
2023-05-01T04:10:34.870Z,77.84
2023-05-01T04:13:37.483Z,78.90
2023-05-01T04:16:40.740Z,79.51
2023-05-01T04:19:44.232Z,79.79
2023-05-01T04:22:47.158Z,79.82
2023-05-01T04:25:49.375Z,77.56
2023-05-01T04:28:52.091Z,78.60
2023-05-01T04:31:54.772Z,73.45
2023-05-01T04:34:57.961Z,74.58
2023-05-01T04:38:00.969Z,75.46
2023-05-01T04:41:05.190Z,74.57
2023-05-01T04:44:07.310Z,74.80
2023-05-01T04:47:09.982Z,77.66
2023-05-01T04:50:12.343Z,79.43
2023-05-01T04:53:15.480Z,80.73
2023-05-01T04:56:17.967Z,80.67
2023-05-01T04:59:20.849Z,77.35
2023-05-01T05:02:23.288Z,79.30
2023-05-01T05:05:26.285Z,80.51
2023-05-01T05:08:29.201Z,81.98
2023-05-01T05:11:31.711Z,81.08
2023-05-01T05:14:34.090Z,80.96
2023-05-01T05:17:36.655Z,79.94
2023-05-01T05:20:39.899Z,79.26
2023-05-01T05:23:42.450Z,79.25
2023-05-01T05:26:44.723Z,78.25
2023-05-01T05:29:47.277Z,76.26
2023-05-01T05:32:49.985Z,71.66
2023-05-01T05:35:53.099Z,73.03
2023-05-01T05:38:55.735Z,63.87
2023-05-01T05:41:58.940Z,57.78
2023-05-01T05:45:01.473Z,52.73
2023-05-01T05:48:04.502Z,46.85
2023-05-01T05:51:07.740Z,38.35
2023-05-01T05:54:10.538Z,31.58
2023-05-01T05:57:13.467Z,31.29
2023-05-01T06:00:17.367Z,27.27
2023-05-01T06:03:20.261Z,27.68
2023-05-01T06:06:22.802Z,27.46
2023-05-01T06:09:26.298Z,25.59
2023-05-01T06:12:29.705Z,24.90
2023-05-01T06:15:32.907Z,25.74
2023-05-01T06:18:35.274Z,24.94
2023-05-01T06:21:38.045Z,24.05
2023-05-01T06:24:40.288Z,21.78
2023-05-01T06:27:43.306Z,21.18
2023-05-01T06:30:45.408Z,20.47
2023-05-01T06:33:48.235Z,21.08
2023-05-01T06:36:51.241Z,20.58
2023-05-01T06:39:54.194Z,22.49
2023-05-01T06:42:58.071Z,23.24
2023-05-01T06:46:01.942Z,24.49
2023-05-01T06:49:04.165Z,23.96
2023-05-01T06:52:06.731Z,22.24
2023-05-01T06:55:09.305Z,23.52
2023-05-01T06:58:22.525Z,22.92
2023-05-01T07:01:26.277Z,23.93
2023-05-01T07:04:28.864Z,22.42
2023-05-01T07:07:31.494Z,21.58
2023-05-01T07:10:33.960Z,20.19
2023-05-01T07:13:36.186Z,21.00
2023-05-01T07:16:38.685Z,21.43
2023-05-01T07:19:41.005Z,21.38
2023-05-01T07:22:43.769Z,23.03
2023-05-01T07:25:46.120Z,25.65
2023-05-01T07:28:48.579Z,25.82
2023-05-01T07:31:50.744Z,27.51
2023-05-01T07:34:53.299Z,28.46
2023-05-01T07:37:55.633Z,30.39
2023-05-01T07:40:58.091Z,31.16
2023-05-01T07:44:00.892Z,31.37
2023-05-01T07:47:04.592Z,30.31
2023-05-01T07:50:09.737Z,29.29
2023-05-01T07:53:12.280Z,29.00
2023-05-01T07:56:14.975Z,29.88
2023-05-01T07:59:17.485Z,30.83
2023-05-01T08:02:19.768Z,35.25
2023-05-01T08:05:22.283Z,33.47
2023-05-01T08:08:24.818Z,34.17
2023-05-01T08:11:27.427Z,34.34
2023-05-01T08:14:30.011Z,35.01
2023-05-01T08:17:32.461Z,34.71
2023-05-01T08:20:37.990Z,34.62
2023-05-01T08:23:40.498Z,35.01
2023-05-01T08:26:42.764Z,35.13
2023-05-01T08:29:45.346Z,35.60
2023-05-01T08:32:47.681Z,34.80
2023-05-01T08:35:51.200Z,36.20
2023-05-01T08:38:54.123Z,34.37
2023-05-01T08:41:58.425Z,34.87
2023-05-01T08:45:01.499Z,35.85
2023-05-01T08:48:07.392Z,35.78
2023-05-01T08:51:10.427Z,37.50
2023-05-01T08:54:14.872Z,35.09
2023-05-01T08:57:17.254Z,35.10
2023-05-01T09:00:21.453Z,36.37
2023-05-01T09:03:24.635Z,34.83
2023-05-01T09:06:29.470Z,35.86
2023-05-01T09:09:32.950Z,35.18
2023-05-01T09:12:36.207Z,34.45
2023-05-01T09:15:38.624Z,34.71
2023-05-01T09:18:41.769Z,33.19
2023-05-01T09:21:44.558Z,32.77
2023-05-01T09:24:47.101Z,32.31
2023-05-01T09:27:49.543Z,31.77
2023-05-01T09:30:53.278Z,30.51
2023-05-01T09:33:59.324Z,30.00
2023-05-01T09:37:01.769Z,30.57
2023-05-01T09:40:08.520Z,30.46
2023-05-01T09:43:11.840Z,30.93
2023-05-01T09:46:14.299Z,28.89
2023-05-01T09:49:16.778Z,27.28
2023-05-01T09:52:19.055Z,25.34
2023-05-01T09:55:25.236Z,25.19
2023-05-01T09:58:30.988Z,23.91
2023-05-01T10:01:48.248Z,22.43
2023-05-01T10:04:59.116Z,22.38
2023-05-01T10:08:03.784Z,21.50
2023-05-01T10:11:06.377Z,20.66
2023-05-01T10:14:10.158Z,21.52
2023-05-01T10:17:21.748Z,24.46
2023-05-01T10:20:24.505Z,21.97
2023-05-01T10:23:26.993Z,22.91
2023-05-01T10:26:29.511Z,22.21
2023-05-01T10:29:34.307Z,21.10
2023-05-01T10:32:38.856Z,22.35
2023-05-01T10:35:45.677Z,20.91
2023-05-01T10:38:48.509Z,20.06
2023-05-01T10:42:04.343Z,21.35
2023-05-01T10:45:33.934Z,20.92
2023-05-01T10:48:40.870Z,20.72
2023-05-01T10:51:59.836Z,22.60
2023-05-01T10:55:34.401Z,22.32
2023-05-01T10:58:39.211Z,23.66
2023-05-01T11:01:44.973Z,21.69
2023-05-01T11:04:51.044Z,21.40
2023-05-01T11:08:29.138Z,22.11
2023-05-01T11:11:31.252Z,21.85
2023-05-01T11:14:57.459Z,22.65
2023-05-01T11:18:01.818Z,21.43
2023-05-01T11:21:05.552Z,20.77
2023-05-01T11:24:08.816Z,21.23
2023-05-01T11:27:14.132Z,19.82
2023-05-01T11:30:17.050Z,19.91
2023-05-01T11:33:25.718Z,20.38
2023-05-01T11:36:29.420Z,20.35
2023-05-01T11:39:32.017Z,20.41
2023-05-01T11:42:34.250Z,20.92
2023-05-01T11:45:37.544Z,22.20
2023-05-01T11:48:40.275Z,21.93
2023-05-01T11:51:42.793Z,20.43
2023-05-01T11:54:48.513Z,20.34
2023-05-01T11:57:53.321Z,20.19
2023-05-01T12:00:55.619Z,20.11
2023-05-01T12:03:58.386Z,20.04
2023-05-01T12:07:00.638Z,19.22
2023-05-01T12:10:04.550Z,19.11
2023-05-01T12:13:09.053Z,20.65
2023-05-01T12:16:11.923Z,22.94
2023-05-01T12:19:17.490Z,22.67
2023-05-01T12:22:20.349Z,23.26
2023-05-01T12:25:22.593Z,23.04
2023-05-01T12:28:27.752Z,21.15
2023-05-01T12:31:30.457Z,21.52
2023-05-01T12:34:34.141Z,20.28
2023-05-01T12:37:36.580Z,20.87
2023-05-01T12:40:56.728Z,23.18
2023-05-01T12:43:58.986Z,21.10
2023-05-01T12:47:07.901Z,21.30
2023-05-01T12:50:10.668Z,20.32
2023-05-01T12:53:13.532Z,21.40
2023-05-01T12:56:23.822Z,21.67
2023-05-01T12:59:27.503Z,21.49
2023-05-01T13:02:33.334Z,24.15
2023-05-01T13:05:35.989Z,25.22
2023-05-01T13:08:42.299Z,24.91
2023-05-01T13:12:05.888Z,24.14
2023-05-01T13:15:08.836Z,25.65
2023-05-01T13:18:12.884Z,25.99
2023-05-01T13:21:17.578Z,25.52
2023-05-01T13:24:20.367Z,26.53
2023-05-01T13:27:23.688Z,29.10
2023-05-01T13:30:34.010Z,26.90
2023-05-01T13:33:37.026Z,28.16
2023-05-01T13:36:40.449Z,26.82
2023-05-01T13:39:43.438Z,28.43
2023-05-01T13:42:46.701Z,29.09
2023-05-01T13:45:48.969Z,27.70
2023-05-01T13:48:54.503Z,28.35
2023-05-01T13:51:56.741Z,28.16
2023-05-01T13:54:59.693Z,28.20
2023-05-01T13:58:03.056Z,28.56
2023-05-01T14:01:23.864Z,28.60
2023-05-01T14:04:26.390Z,28.71
2023-05-01T14:07:28.591Z,29.21
2023-05-01T14:10:31.809Z,28.40
2023-05-01T14:13:35.778Z,29.52
2023-05-01T14:16:41.220Z,29.57
2023-05-01T14:19:43.522Z,28.85
2023-05-01T14:22:48.127Z,28.73
2023-05-01T14:25:50.280Z,28.93
2023-05-01T14:28:52.785Z,29.27
2023-05-01T14:31:55.862Z,29.79
2023-05-01T14:34:59.727Z,29.95
2023-05-01T14:38:11.293Z,30.45
2023-05-01T14:41:14.743Z,29.67
2023-05-01T14:44:19.337Z,30.45
2023-05-01T14:47:22.289Z,29.84
2023-05-01T14:50:25.124Z,30.66
2023-05-01T14:53:32.169Z,29.94
2023-05-01T14:56:34.367Z,31.10
2023-05-01T14:59:36.731Z,31.02
2023-05-01T15:02:39.288Z,30.62
2023-05-01T15:05:41.969Z,30.49
2023-05-01T15:08:44.505Z,31.06
2023-05-01T15:11:47.321Z,29.85
2023-05-01T15:14:49.561Z,30.22
2023-05-01T15:17:52.058Z,30.79
2023-05-01T15:20:54.304Z,31.10
2023-05-01T15:24:10.815Z,30.35
2023-05-01T15:27:26.828Z,30.76
2023-05-01T15:30:53.836Z,30.52
2023-05-01T15:34:03.310Z,30.82
2023-05-01T15:37:24.811Z,31.20
2023-05-01T15:40:34.877Z,30.44
2023-05-01T15:43:56.814Z,31.22
2023-05-01T15:47:18.841Z,30.75
2023-05-01T15:50:34.823Z,30.79
2023-05-01T15:53:56.865Z,31.03
2023-05-01T15:57:13.860Z,30.57
2023-05-01T16:00:35.818Z,30.68
2023-05-01T16:03:47.152Z,31.56
2023-05-01T16:07:08.994Z,31.77
2023-05-01T16:10:24.816Z,31.23
2023-05-01T16:13:51.848Z,32.15
2023-05-01T16:17:01.435Z,31.86
2023-05-01T16:20:24.812Z,32.76
2023-05-01T16:23:40.818Z,31.89
2023-05-01T16:26:55.789Z,32.23
2023-05-01T16:30:11.859Z,32.46
2023-05-01T16:33:33.871Z,32.14
2023-05-01T16:36:50.810Z,32.20
2023-05-01T16:40:00.521Z,32.01
2023-05-01T16:43:04.523Z,32.89
2023-05-01T16:46:06.772Z,32.67
2023-05-01T16:49:14.241Z,32.45
2023-05-01T16:52:17.088Z,32.60
2023-05-01T16:55:19.558Z,32.58
2023-05-01T16:58:34.860Z,32.55
2023-05-01T17:01:51.031Z,32.83
2023-05-01T17:05:00.251Z,33.28
2023-05-01T17:08:03.055Z,32.78
2023-05-01T17:11:08.986Z,32.54
2023-05-01T17:14:11.806Z,32.59
2023-05-01T17:17:17.584Z,33.78
2023-05-01T17:20:20.048Z,33.05
2023-05-01T17:23:22.421Z,32.74
2023-05-01T17:26:24.813Z,33.15
2023-05-01T17:29:27.602Z,33.42
2023-05-01T17:32:37.016Z,32.51
2023-05-01T17:35:42.032Z,33.48
2023-05-01T17:38:44.473Z,33.15
2023-05-01T17:41:46.614Z,33.03
2023-05-01T17:44:49.059Z,33.19
2023-05-01T17:47:52.554Z,33.38
2023-05-01T17:50:55.730Z,33.89
2023-05-01T17:53:57.862Z,33.77
2023-05-01T17:57:00.328Z,33.66
2023-05-01T18:00:04.356Z,33.25
2023-05-01T18:03:14.360Z,34.19
2023-05-01T18:06:17.023Z,34.13
2023-05-01T18:09:19.580Z,34.69
2023-05-01T18:12:22.084Z,33.50
2023-05-01T18:15:24.526Z,33.88
2023-05-01T18:18:27.198Z,33.83
2023-05-01T18:21:29.357Z,33.91
2023-05-01T18:24:31.819Z,33.91
2023-05-01T18:27:33.969Z,34.08
2023-05-01T18:30:36.456Z,34.63
2023-05-01T18:33:39.228Z,34.50
2023-05-01T18:36:41.750Z,34.15
2023-05-01T18:39:45.277Z,34.30
2023-05-01T18:42:47.726Z,34.35
2023-05-01T18:45:49.911Z,34.88
2023-05-01T18:48:52.430Z,34.48
2023-05-01T18:51:54.602Z,34.51
2023-05-01T18:54:57.184Z,34.69
2023-05-01T18:58:01.573Z,35.85
2023-05-01T19:01:04.023Z,35.05
2023-05-01T19:04:06.679Z,34.99
2023-05-01T19:07:09.171Z,35.66
2023-05-01T19:10:11.438Z,36.09
2023-05-01T19:13:13.866Z,34.88
2023-05-01T19:16:16.061Z,35.50
2023-05-01T19:19:18.572Z,35.52
2023-05-01T19:22:20.720Z,36.07
2023-05-01T19:25:24.141Z,36.10
2023-05-01T19:28:26.348Z,36.19
2023-05-01T19:31:28.896Z,37.48
2023-05-01T19:34:31.099Z,37.09
2023-05-01T19:37:33.504Z,36.97
2023-05-01T19:40:36.150Z,37.24
2023-05-01T19:43:40.366Z,37.34
2023-05-01T19:46:42.808Z,37.21
2023-05-01T19:49:45.291Z,37.17
2023-05-01T19:52:47.544Z,37.12
2023-05-01T19:55:50.625Z,37.51
2023-05-01T19:58:55.654Z,38.32
2023-05-01T20:02:00.955Z,39.19
2023-05-01T20:05:04.695Z,38.77
2023-05-01T20:08:07.263Z,38.55
2023-05-01T20:11:09.724Z,39.55
2023-05-01T20:14:11.973Z,40.22
2023-05-01T20:17:14.570Z,39.97
2023-05-01T20:20:19.210Z,40.42
2023-05-01T20:23:24.785Z,40.82
2023-05-01T20:26:27.034Z,42.11
2023-05-01T20:29:29.458Z,42.18
2023-05-01T20:32:31.666Z,43.09
2023-05-01T20:35:34.719Z,42.39
2023-05-01T20:38:43.732Z,42.59
2023-05-01T20:41:46.202Z,42.02
2023-05-01T20:44:48.306Z,42.73
2023-05-01T20:47:51.482Z,42.69
2023-05-01T20:50:53.786Z,43.59
2023-05-01T20:53:56.381Z,42.88
2023-05-01T20:56:58.852Z,43.58
2023-05-01T21:00:01.871Z,43.64
2023-05-01T21:03:04.821Z,43.77
2023-05-01T21:06:07.552Z,43.62
2023-05-01T21:09:12.425Z,43.57
2023-05-01T21:12:15.064Z,43.70
2023-05-01T21:15:17.203Z,43.88
2023-05-01T21:18:22.468Z,44.17
2023-05-01T21:21:26.351Z,43.71
2023-05-01T21:24:30.158Z,43.25
2023-05-01T21:27:32.281Z,43.85
2023-05-01T21:30:36.068Z,43.49
2023-05-01T21:33:38.854Z,43.91
2023-05-01T21:36:49.153Z,43.89
2023-05-01T21:39:51.576Z,44.42
2023-05-01T21:42:54.984Z,43.12
2023-05-01T21:45:57.283Z,43.43
2023-05-01T21:48:59.755Z,43.30
2023-05-01T21:52:01.950Z,43.61
2023-05-01T21:55:07.062Z,43.52
2023-05-01T21:58:09.219Z,43.93
2023-05-01T22:01:13.723Z,43.64
2023-05-01T22:04:18.224Z,44.22
2023-05-01T22:07:20.479Z,43.81
2023-05-01T22:10:24.363Z,44.63
2023-05-01T22:13:33.100Z,45.42
2023-05-01T22:16:35.502Z,44.89
2023-05-01T22:19:37.882Z,44.86
2023-05-01T22:22:41.762Z,44.57
2023-05-01T22:25:44.253Z,45.58
2023-05-01T22:28:46.655Z,44.92
2023-05-01T22:31:48.949Z,45.70
2023-05-01T22:34:51.434Z,46.36
2023-05-01T22:37:53.541Z,47.25
2023-05-01T22:40:55.917Z,47.59
2023-05-01T22:43:58.106Z,48.01
2023-05-01T22:47:00.685Z,47.53
2023-05-01T22:50:02.983Z,47.83
2023-05-01T22:53:05.789Z,47.53
2023-05-01T22:56:08.043Z,48.61
2023-05-01T22:59:11.169Z,48.19
2023-05-01T23:02:17.481Z,48.21
2023-05-01T23:05:20.079Z,48.34
2023-05-01T23:08:22.209Z,48.24
2023-05-01T23:11:30.128Z,48.54
2023-05-01T23:14:32.989Z,48.73
2023-05-01T23:17:36.044Z,48.00
2023-05-01T23:20:40.346Z,48.24
2023-05-01T23:23:43.607Z,49.46
2023-05-01T23:26:46.171Z,49.23
2023-05-01T23:29:56.555Z,49.09
2023-05-01T23:32:59.781Z,50.03
2023-05-01T23:36:02.457Z,49.60
2023-05-01T23:39:04.629Z,49.27
2023-05-01T23:42:07.268Z,48.97
2023-05-01T23:45:09.720Z,49.47
2023-05-01T23:48:12.949Z,49.43
2023-05-01T23:51:15.235Z,49.79
2023-05-01T23:54:17.676Z,49.74
2023-05-01T23:57:19.844Z,50.31
